createdAt,value
2023-03-21T00:02:35.619Z,10.70
2023-03-21T00:05:21.447Z,10.80
2023-03-21T00:08:07.335Z,10.80
2023-03-21T00:11:05.327Z,10.80
2023-03-21T00:13:51.006Z,10.90
2023-03-21T00:19:44.917Z,10.70
2023-03-21T00:22:30.917Z,10.70
2023-03-21T00:25:16.767Z,10.70
2023-03-21T00:28:08.272Z,10.70
2023-03-21T00:30:59.578Z,10.80
2023-03-21T00:33:45.382Z,10.90
2023-03-21T00:36:32.323Z,10.90
2023-03-21T00:39:18.125Z,10.90
2023-03-21T00:42:03.982Z,11.00
2023-03-21T00:44:49.718Z,11.00
2023-03-21T00:47:35.843Z,11.00
2023-03-21T00:50:21.742Z,11.00
2023-03-21T00:53:07.875Z,11.10
2023-03-21T00:55:54.002Z,11.10
2023-03-21T00:58:39.768Z,11.00
2023-03-21T01:01:26.673Z,10.80
2023-03-21T01:04:14.959Z,10.70
2023-03-21T01:07:01.223Z,10.60
2023-03-21T01:09:47.398Z,10.50
2023-03-21T01:12:33.593Z,10.60
2023-03-21T01:15:22.237Z,10.60
2023-03-21T01:18:07.840Z,10.70
2023-03-21T01:20:55.152Z,10.80
2023-03-21T01:23:42.703Z,10.80
2023-03-21T01:26:29.489Z,10.70
2023-03-21T01:29:15.359Z,10.70
2023-03-21T01:32:01.433Z,10.80
2023-03-21T01:34:47.547Z,10.70
2023-03-21T01:37:33.057Z,10.60
2023-03-21T01:40:25.152Z,10.40
2023-03-21T01:43:22.898Z,10.40
2023-03-21T01:46:49.580Z,10.40
2023-03-21T01:50:09.262Z,10.40
2023-03-21T01:53:01.329Z,10.30
2023-03-21T01:55:50.141Z,10.30
2023-03-21T01:59:37.160Z,10.30
2023-03-21T02:02:31.936Z,11.30
2023-03-21T02:05:54.169Z,10.40
2023-03-21T02:08:42.019Z,10.60
2023-03-21T02:11:33.163Z,10.50
2023-03-21T02:14:28.877Z,10.50
2023-03-21T02:17:51.151Z,10.50
2023-03-21T02:21:06.929Z,10.50
2023-03-21T02:24:36.972Z,10.50
2023-03-21T02:27:25.252Z,10.50
2023-03-21T02:30:26.478Z,10.50
2023-03-21T02:34:04.863Z,10.60
2023-03-21T02:37:06.683Z,10.50
2023-03-21T02:40:14.692Z,10.40
2023-03-21T02:43:23.345Z,10.30
2023-03-21T02:46:47.037Z,10.10
2023-03-21T02:49:50.037Z,10.10
2023-03-21T02:52:39.821Z,9.80
2023-03-21T02:55:32.401Z,9.90
2023-03-21T02:58:24.806Z,9.70
2023-03-21T03:01:15.535Z,9.60
2023-03-21T03:04:18.803Z,9.60
2023-03-21T03:07:16.517Z,9.50
2023-03-21T03:10:27.049Z,9.50
2023-03-21T03:13:39.440Z,9.20
2023-03-21T03:16:40.372Z,9.40
2023-03-21T03:19:31.217Z,9.40
2023-03-21T03:22:37.458Z,9.70
2023-03-21T03:25:43.183Z,10.00
2023-03-21T03:28:38.600Z,10.10
2023-03-21T03:31:38.421Z,10.10
2023-03-21T03:34:28.642Z,10.00
2023-03-21T03:37:20.778Z,9.70
2023-03-21T03:40:17.140Z,9.20
2023-03-21T03:43:17.394Z,9.30
2023-03-21T03:46:14.747Z,9.30
2023-03-21T03:49:24.635Z,9.30
2023-03-21T03:52:24.438Z,9.40
2023-03-21T03:55:19.618Z,9.60
2023-03-21T03:58:21.356Z,9.70
2023-03-21T04:01:10.404Z,9.70
2023-03-21T04:04:10.591Z,9.70
2023-03-21T04:07:00.169Z,9.40
2023-03-21T04:09:46.479Z,9.30
2023-03-21T04:12:36.674Z,9.40
2023-03-21T04:15:36.464Z,9.80
2023-03-21T04:18:30.869Z,9.90
2023-03-21T04:21:18.159Z,10.00
2023-03-21T04:24:04.571Z,9.90
2023-03-21T04:26:54.094Z,9.80
2023-03-21T04:29:56.689Z,9.80
2023-03-21T04:32:57.666Z,9.60
2023-03-21T04:35:45.806Z,9.50
2023-03-21T04:38:34.073Z,9.50
2023-03-21T04:41:22.804Z,9.70
2023-03-21T04:44:10.113Z,8.50
2023-03-21T04:46:56.458Z,9.70
2023-03-21T04:49:45.805Z,9.60
2023-03-21T04:52:31.801Z,9.60
2023-03-21T04:55:21.784Z,9.50
2023-03-21T04:58:07.872Z,9.30
2023-03-21T05:00:54.725Z,9.20
2023-03-21T05:03:41.720Z,9.40
2023-03-21T05:06:28.190Z,9.50
2023-03-21T05:09:14.353Z,9.50
2023-03-21T05:12:00.289Z,9.70
2023-03-21T05:14:48.753Z,9.70
2023-03-21T05:17:34.873Z,9.70
2023-03-21T05:20:20.810Z,9.50
2023-03-21T05:23:10.854Z,9.60
2023-03-21T05:25:58.251Z,9.70
2023-03-21T05:28:57.334Z,9.70
2023-03-21T05:31:45.181Z,9.70
2023-03-21T05:34:33.233Z,9.70
2023-03-21T05:37:21.136Z,9.70
2023-03-21T05:40:10.374Z,9.80
2023-03-21T05:43:00.967Z,9.80
2023-03-21T05:45:48.385Z,9.90
2023-03-21T05:52:17.449Z,9.50
2023-03-21T05:55:05.416Z,9.90
2023-03-21T05:57:51.082Z,10.00
2023-03-21T06:00:42.422Z,10.10
2023-03-21T06:03:37.865Z,10.00
2023-03-21T06:06:34.128Z,10.10
2023-03-21T06:09:23.028Z,10.20
2023-03-21T06:12:14.721Z,10.30
2023-03-21T06:15:26.819Z,10.40
2023-03-21T06:18:23.620Z,10.40
2023-03-21T06:21:32.767Z,10.40
2023-03-21T06:24:18.746Z,10.40
2023-03-21T06:27:05.420Z,10.40
2023-03-21T06:30:05.972Z,10.40
2023-03-21T06:32:57.349Z,10.40
2023-03-21T06:35:43.248Z,10.40
2023-03-21T06:38:29.846Z,10.60
2023-03-21T06:41:17.116Z,10.60
2023-03-21T06:44:11.357Z,10.50
2023-03-21T06:47:05.866Z,10.60
2023-03-21T06:49:51.947Z,10.80
2023-03-21T06:52:37.775Z,11.00
2023-03-21T06:55:26.927Z,11.20
2023-03-21T06:58:14.107Z,11.50
2023-03-21T07:01:03.096Z,11.80
2023-03-21T07:03:52.232Z,11.90
2023-03-21T07:06:40.746Z,12.00
2023-03-21T07:09:28.349Z,12.10
2023-03-21T07:12:19.197Z,12.20
2023-03-21T07:15:43.559Z,12.40
2023-03-21T07:18:29.314Z,12.60
2023-03-21T07:21:15.844Z,12.70
2023-03-21T07:24:01.875Z,12.80
2023-03-21T07:26:48.201Z,13.00
2023-03-21T07:29:34.428Z,13.20
2023-03-21T07:32:20.308Z,13.40
2023-03-21T07:35:08.904Z,13.50
2023-03-21T07:37:55.648Z,13.50
2023-03-21T07:40:43.418Z,13.70
2023-03-21T07:43:29.551Z,13.80
2023-03-21T07:46:18.058Z,14.00
2023-03-21T07:49:03.812Z,14.20
2023-03-21T07:51:50.131Z,14.50
2023-03-21T07:54:36.520Z,15.00
2023-03-21T07:57:23.181Z,15.90
2023-03-21T08:00:10.972Z,16.70
2023-03-21T08:03:01.937Z,16.80
2023-03-21T08:05:47.701Z,18.10
2023-03-21T08:08:34.005Z,18.40
2023-03-21T08:11:21.754Z,18.30
2023-03-21T08:14:07.996Z,18.80
2023-03-21T08:16:53.950Z,19.40
2023-03-21T08:19:40.122Z,19.30
2023-03-21T08:22:26.614Z,18.30
2023-03-21T08:25:14.192Z,16.60
2023-03-21T08:27:59.974Z,16.90
2023-03-21T08:30:46.327Z,17.20
2023-03-21T08:33:32.711Z,17.70
2023-03-21T08:36:19.056Z,17.30
2023-03-21T08:39:06.020Z,17.50
2023-03-21T08:41:51.946Z,17.90
2023-03-21T08:44:39.756Z,19.60
2023-03-21T08:47:25.707Z,21.50
2023-03-21T08:50:15.240Z,20.40
2023-03-21T08:53:01.296Z,18.00
2023-03-21T08:55:47.517Z,19.40
2023-03-21T08:58:33.270Z,20.40
2023-03-21T09:01:19.164Z,21.30
2023-03-21T09:04:08.165Z,21.90
2023-03-21T09:06:56.406Z,22.40
2023-03-21T09:09:42.270Z,20.90
2023-03-21T09:12:27.932Z,21.60
2023-03-21T09:15:14.642Z,23.00
2023-03-21T09:18:13.464Z,24.00
2023-03-21T09:21:01.049Z,24.10
2023-03-21T09:23:48.822Z,23.50
2023-03-21T09:26:34.920Z,20.40
2023-03-21T09:29:21.531Z,20.00
2023-03-21T09:32:08.477Z,20.70
2023-03-21T09:34:55.616Z,20.00
2023-03-21T09:37:42.733Z,20.40
2023-03-21T09:41:07.272Z,22.20
2023-03-21T09:44:15.179Z,23.90
2023-03-21T09:47:21.200Z,23.80
2023-03-21T09:50:27.334Z,21.30
2023-03-21T09:53:26.053Z,20.00
2023-03-21T09:56:13.295Z,20.60
2023-03-21T09:59:01.817Z,21.20
2023-03-21T10:01:49.574Z,21.60
2023-03-21T10:04:38.125Z,21.10
2023-03-21T10:07:24.866Z,22.20
2023-03-21T10:10:18.262Z,23.80
2023-03-21T10:13:11.553Z,23.60
2023-03-21T10:16:00.240Z,24.60
2023-03-21T10:18:48.235Z,24.90
2023-03-21T10:24:39.877Z,22.80
2023-03-21T10:27:26.138Z,21.30
2023-03-21T10:30:45.019Z,21.20
2023-03-21T10:33:40.155Z,21.50
2023-03-21T10:36:37.643Z,23.50
2023-03-21T10:39:38.322Z,24.10
2023-03-21T10:42:26.679Z,25.60
2023-03-21T10:45:19.586Z,26.10
2023-03-21T10:48:07.902Z,25.70
2023-03-21T10:50:55.588Z,26.20
2023-03-21T10:53:48.428Z,25.60
2023-03-21T10:56:41.000Z,25.70
2023-03-21T10:59:29.756Z,25.60
2023-03-21T11:02:21.263Z,26.60
2023-03-21T11:05:29.334Z,23.70
2023-03-21T11:08:19.686Z,23.10
2023-03-21T11:11:09.155Z,25.00
2023-03-21T11:14:07.329Z,24.00
2023-03-21T11:16:53.314Z,25.40
2023-03-21T11:19:39.397Z,25.90
2023-03-21T11:22:31.420Z,25.70
2023-03-21T11:25:35.192Z,27.10
2023-03-21T11:28:24.428Z,22.50
2023-03-21T11:31:11.567Z,23.10
2023-03-21T11:34:00.106Z,23.50
2023-03-21T11:36:51.258Z,22.60
2023-03-21T11:39:41.162Z,22.40
2023-03-21T11:42:32.860Z,22.20
2023-03-21T11:45:28.541Z,23.20
2023-03-21T11:48:15.431Z,23.20
2023-03-21T11:51:07.353Z,23.30
2023-03-21T11:53:59.345Z,21.40
2023-03-21T11:56:49.663Z,20.60
2023-03-21T11:59:46.538Z,20.00
2023-03-21T12:02:36.729Z,19.70
2023-03-21T12:05:39.366Z,18.90
2023-03-21T12:08:46.131Z,18.70
2023-03-21T12:11:58.313Z,19.20
2023-03-21T12:15:06.342Z,19.40
2023-03-21T12:17:58.795Z,19.30
2023-03-21T12:21:03.469Z,19.30
2023-03-21T12:24:01.633Z,19.50
2023-03-21T12:26:58.106Z,19.10
2023-03-21T12:30:12.605Z,19.50
2023-03-21T12:33:06.536Z,19.90
2023-03-21T12:36:01.338Z,20.00
2023-03-21T12:39:02.607Z,18.90
2023-03-21T12:42:20.653Z,18.70
2023-03-21T12:45:24.717Z,18.80
2023-03-21T12:48:36.829Z,18.90
2023-03-21T12:51:43.978Z,19.20
2023-03-21T12:54:39.303Z,19.00
2023-03-21T12:57:40.201Z,19.40
2023-03-21T13:00:53.777Z,19.30
2023-03-21T13:03:50.975Z,19.70
2023-03-21T13:06:39.019Z,19.20
2023-03-21T13:09:37.594Z,18.90
2023-03-21T13:12:26.709Z,19.20
2023-03-21T13:15:38.171Z,19.20
2023-03-21T13:18:29.595Z,19.90
2023-03-21T13:21:37.520Z,19.20
2023-03-21T13:24:58.610Z,19.60
2023-03-21T13:27:47.550Z,19.60
2023-03-21T13:30:33.551Z,19.10
2023-03-21T13:33:34.764Z,19.20
2023-03-21T13:36:26.251Z,19.70
2023-03-21T13:39:19.891Z,19.80
2023-03-21T13:42:13.201Z,19.90
2023-03-21T13:45:02.340Z,19.90
2023-03-21T13:47:55.317Z,19.80
2023-03-21T13:51:02.171Z,19.70
2023-03-21T13:54:20.320Z,19.50
2023-03-21T13:57:07.073Z,19.70
2023-03-21T14:00:18.094Z,19.30
2023-03-21T14:03:13.441Z,19.30
2023-03-21T14:05:59.632Z,19.40
2023-03-21T14:08:47.838Z,19.70
2023-03-21T14:11:36.751Z,19.60
2023-03-21T14:14:26.516Z,19.40
2023-03-21T14:17:26.420Z,19.20
2023-03-21T14:20:18.681Z,19.70
2023-03-21T14:23:13.030Z,19.90
2023-03-21T14:25:59.013Z,20.20
2023-03-21T14:28:49.686Z,19.40
2023-03-21T14:31:36.845Z,19.00
2023-03-21T14:34:25.154Z,19.20
2023-03-21T14:37:11.662Z,18.50
2023-03-21T14:40:02.459Z,19.20
2023-03-21T14:42:51.034Z,19.40
2023-03-21T14:45:37.464Z,19.50
2023-03-21T14:48:34.347Z,19.20
2023-03-21T14:51:20.361Z,19.10
2023-03-21T14:54:06.629Z,19.50
2023-03-21T14:57:02.929Z,19.40
2023-03-21T14:59:52.852Z,19.50
2023-03-21T15:02:41.773Z,19.70
2023-03-21T15:05:37.770Z,19.40
2023-03-21T15:08:27.755Z,19.80
2023-03-21T15:11:14.266Z,20.30
2023-03-21T15:14:04.057Z,19.80
2023-03-21T15:16:50.584Z,19.30
2023-03-21T15:19:40.278Z,19.50
2023-03-21T15:22:41.706Z,19.60
2023-03-21T15:25:34.973Z,19.80
2023-03-21T15:28:21.201Z,19.70
2023-03-21T15:31:14.562Z,19.80
2023-03-21T15:34:03.347Z,19.80
2023-03-21T15:36:55.152Z,19.50
2023-03-21T15:39:40.772Z,19.30
2023-03-21T15:42:30.366Z,19.60
2023-03-21T15:45:27.141Z,19.50
2023-03-21T15:48:14.722Z,19.20
2023-03-21T15:51:05.675Z,19.30
2023-03-21T15:53:54.480Z,19.60
2023-03-21T15:56:42.541Z,19.80
2023-03-21T15:59:33.437Z,19.90
2023-03-21T16:02:23.226Z,19.30
2023-03-21T16:05:24.602Z,19.30
2023-03-21T16:08:26.445Z,19.10
2023-03-21T16:11:40.481Z,19.10
2023-03-21T16:14:28.343Z,19.20
2023-03-21T16:17:27.899Z,19.00
2023-03-21T16:20:22.936Z,19.10
2023-03-21T16:23:16.080Z,19.20
2023-03-21T16:26:05.053Z,19.30
2023-03-21T16:28:52.094Z,19.40
2023-03-21T16:31:38.500Z,19.60
2023-03-21T16:34:24.549Z,19.40
2023-03-21T16:37:12.016Z,19.80
2023-03-21T16:39:58.447Z,19.60
2023-03-21T16:42:45.425Z,19.60
2023-03-21T16:45:31.798Z,19.60
2023-03-21T16:48:18.075Z,19.50
2023-03-21T16:51:03.951Z,19.40
2023-03-21T16:53:51.456Z,19.60
2023-03-21T16:56:40.533Z,19.70
2023-03-21T16:59:27.109Z,19.50
2023-03-21T17:02:16.422Z,19.40
2023-03-21T17:05:04.948Z,19.40
2023-03-21T17:07:51.424Z,19.40
2023-03-21T17:10:37.749Z,19.40
2023-03-21T17:13:23.990Z,19.10
2023-03-21T17:16:13.164Z,19.10
2023-03-21T17:19:00.334Z,19.10
2023-03-21T17:21:46.836Z,19.20
2023-03-21T17:24:33.205Z,19.20
2023-03-21T17:27:19.466Z,19.00
2023-03-21T17:30:21.036Z,18.70
2023-03-21T17:33:07.817Z,18.40
2023-03-21T17:35:54.279Z,18.30
2023-03-21T17:38:40.713Z,18.20
2023-03-21T17:41:27.682Z,18.40
2023-03-21T17:44:14.008Z,18.40
2023-03-21T17:46:59.644Z,18.20
2023-03-21T17:49:46.766Z,18.10
2023-03-21T17:52:33.439Z,18.00
2023-03-21T17:55:21.409Z,18.00
2023-03-21T17:58:07.748Z,17.80
2023-03-21T18:00:53.621Z,18.00
2023-03-21T18:03:39.596Z,17.90
2023-03-21T18:06:26.771Z,17.80
2023-03-21T18:09:12.536Z,18.00
2023-03-21T18:11:58.475Z,18.00
2023-03-21T18:14:45.932Z,17.80
2023-03-21T18:17:32.290Z,17.80
2023-03-21T18:20:21.270Z,18.10
2023-03-21T18:23:07.673Z,18.30
2023-03-21T18:25:53.805Z,18.40
2023-03-21T18:28:43.963Z,18.30
2023-03-21T18:31:30.788Z,18.30
2023-03-21T18:34:16.746Z,18.20
2023-03-21T18:37:04.377Z,18.00
2023-03-21T18:39:50.228Z,18.30
2023-03-21T18:42:36.876Z,18.20
2023-03-21T18:45:25.207Z,18.20
2023-03-21T18:48:13.861Z,18.20
2023-03-21T18:50:59.678Z,18.10
2023-03-21T18:53:48.010Z,18.00
2023-03-21T18:57:27.243Z,17.90
2023-03-21T18:59:43.036Z,17.50
2023-03-21T19:02:28.859Z,17.60
2023-03-21T19:05:17.253Z,17.50
2023-03-21T19:08:03.361Z,17.30
2023-03-21T19:10:51.127Z,17.30
2023-03-21T19:13:37.793Z,17.30
2023-03-21T19:16:28.403Z,17.10
2023-03-21T19:19:19.067Z,17.20
2023-03-21T19:22:05.003Z,16.80
2023-03-21T19:24:51.141Z,16.80
2023-03-21T19:27:38.486Z,16.80
2023-03-21T19:30:24.845Z,16.70
2023-03-21T19:33:11.090Z,16.70
2023-03-21T19:36:12.959Z,16.70
2023-03-21T19:39:22.914Z,16.60
2023-03-21T19:42:16.933Z,16.40
2023-03-21T19:45:04.926Z,16.30
2023-03-21T19:48:09.788Z,16.30
2023-03-21T19:54:05.858Z,16.10
2023-03-21T19:56:52.348Z,16.10
2023-03-21T19:59:39.414Z,16.00
2023-03-21T20:06:34.507Z,15.90
2023-03-21T20:09:50.880Z,15.80
2023-03-21T20:12:27.847Z,14.60
2023-03-21T20:15:19.976Z,15.70
2023-03-21T20:18:08.819Z,15.80
2023-03-21T20:20:55.218Z,15.70
2023-03-21T20:23:44.222Z,15.60
2023-03-21T20:26:31.217Z,15.70
2023-03-21T20:32:23.339Z,15.70
2023-03-21T20:35:20.776Z,15.70
2023-03-21T20:38:13.647Z,15.60
2023-03-21T20:41:00.944Z,15.60
2023-03-21T20:44:28.516Z,15.60
2023-03-21T20:46:52.530Z,15.60
2023-03-21T20:49:38.634Z,15.50
2023-03-21T20:53:00.746Z,15.60
2023-03-21T20:55:32.751Z,15.30
2023-03-21T20:58:43.620Z,15.30
2023-03-21T21:01:26.241Z,15.10
2023-03-21T21:04:15.087Z,15.20
2023-03-21T21:07:01.209Z,15.20
2023-03-21T21:09:47.780Z,15.20
2023-03-21T21:12:34.118Z,15.20
2023-03-21T21:15:20.010Z,15.10
2023-03-21T21:18:07.589Z,15.10
2023-03-21T21:20:55.657Z,15.20
2023-03-21T21:23:43.438Z,15.20
2023-03-21T21:26:29.315Z,15.20
2023-03-21T21:29:18.368Z,15.20
2023-03-21T21:32:06.172Z,15.10
2023-03-21T21:34:52.467Z,15.10
2023-03-21T21:37:41.821Z,15.10
2023-03-21T21:40:28.359Z,15.00
2023-03-21T21:43:14.646Z,14.60
2023-03-21T21:46:00.851Z,14.80
2023-03-21T21:48:47.730Z,15.00
2023-03-21T21:52:37.408Z,15.10
2023-03-21T21:55:24.063Z,15.20
2023-03-21T21:58:13.421Z,15.10
2023-03-21T22:01:00.962Z,14.90
2023-03-21T22:03:51.789Z,14.90
2023-03-21T22:06:38.191Z,14.90
2023-03-21T22:09:24.505Z,14.90
2023-03-21T22:12:11.194Z,14.90
2023-03-21T22:14:57.223Z,14.90
2023-03-21T22:17:42.988Z,14.90
2023-03-21T22:20:30.066Z,14.90
2023-03-21T22:23:16.325Z,14.80
2023-03-21T22:26:02.592Z,14.70
2023-03-21T22:28:50.764Z,14.80
2023-03-21T22:31:38.954Z,14.90
2023-03-21T22:34:27.915Z,15.00
2023-03-21T22:37:14.582Z,14.90
2023-03-21T22:40:06.969Z,15.10
2023-03-21T22:42:52.786Z,15.10
2023-03-21T22:45:39.511Z,15.00
2023-03-21T22:48:30.421Z,15.00
2023-03-21T22:51:16.480Z,14.80
2023-03-21T22:54:02.264Z,14.80
2023-03-21T22:56:48.775Z,14.70
2023-03-21T22:59:34.968Z,14.80
2023-03-21T23:02:21.121Z,14.80
2023-03-21T23:05:08.762Z,14.60
2023-03-21T23:07:54.835Z,14.70
2023-03-21T23:10:44.131Z,15.00
2023-03-21T23:13:30.323Z,15.10
2023-03-21T23:16:16.988Z,15.10
2023-03-21T23:19:04.592Z,15.00
2023-03-21T23:21:50.218Z,14.80
2023-03-21T23:24:36.181Z,14.70
2023-03-21T23:27:22.055Z,14.70
2023-03-21T23:30:08.026Z,14.40
2023-03-21T23:32:53.985Z,14.30
2023-03-21T23:35:41.628Z,14.10
2023-03-21T23:38:27.683Z,14.00
2023-03-21T23:41:16.824Z,13.90
2023-03-21T23:44:03.017Z,14.10
2023-03-21T23:46:49.390Z,14.30
2023-03-21T23:49:40.212Z,14.30
2023-03-21T23:52:26.238Z,14.30
2023-03-21T23:55:12.143Z,14.40
2023-03-21T23:58:01.196Z,14.30
